sensor_id;sensor_type;location;lat;lon;timestamp;P1;durP1;ratioP1;P2;durP2;ratioP2
7195;SDS011;3639;51.308;5.624;2023-06-14T00:00:30;8.97;;;6.13;;
7195;SDS011;3639;51.308;5.624;2023-06-14T00:02:56;7.67;;;5.73;;
7195;SDS011;3639;51.308;5.624;2023-06-14T00:05:23;7.40;;;5.77;;
7195;SDS011;3639;51.308;5.624;2023-06-14T00:07:49;7.80;;;5.83;;
7195;SDS011;3639;51.308;5.624;2023-06-14T00:10:18;9.97;;;6.13;;
7195;SDS011;3639;51.308;5.624;2023-06-14T00:12:44;7.77;;;6.17;;
7195;SDS011;3639;51.308;5.624;2023-06-14T00:15:09;6.77;;;5.43;;
7195;SDS011;3639;51.308;5.624;2023-06-14T00:17:35;8.00;;;6.10;;
7195;SDS011;3639;51.308;5.624;2023-06-14T00:20:02;10.50;;;6.13;;
7195;SDS011;3639;51.308;5.624;2023-06-14T00:22:30;11.03;;;6.63;;
7195;SDS011;3639;51.308;5.624;2023-06-14T00:24:56;9.50;;;6.37;;
7195;SDS011;3639;51.308;5.624;2023-06-14T00:27:22;8.60;;;6.27;;
7195;SDS011;3639;51.308;5.624;2023-06-14T00:29:48;8.00;;;7.00;;
7195;SDS011;3639;51.308;5.624;2023-06-14T00:32:13;9.93;;;6.20;;
7195;SDS011;3639;51.308;5.624;2023-06-14T00:34:39;9.97;;;7.07;;
7195;SDS011;3639;51.308;5.624;2023-06-14T00:37:04;9.53;;;6.90;;
7195;SDS011;3639;51.308;5.624;2023-06-14T00:39:30;11.40;;;7.67;;
7195;SDS011;3639;51.308;5.624;2023-06-14T00:41:56;11.23;;;7.27;;
7195;SDS011;3639;51.308;5.624;2023-06-14T00:44:22;9.47;;;7.70;;
7195;SDS011;3639;51.308;5.624;2023-06-14T00:46:50;10.60;;;8.20;;
7195;SDS011;3639;51.308;5.624;2023-06-14T00:49:16;12.33;;;8.13;;
7195;SDS011;3639;51.308;5.624;2023-06-14T00:51:43;9.87;;;7.43;;
7195;SDS011;3639;51.308;5.624;2023-06-14T00:54:09;8.67;;;7.77;;
7195;SDS011;3639;51.308;5.624;2023-06-14T00:56:35;10.77;;;7.40;;
7195;SDS011;3639;51.308;5.624;2023-06-14T00:59:01;9.07;;;6.87;;
7195;SDS011;3639;51.308;5.624;2023-06-14T01:01:28;12.97;;;8.53;;
7195;SDS011;3639;51.308;5.624;2023-06-14T01:03:57;9.77;;;7.47;;
7195;SDS011;3639;51.308;5.624;2023-06-14T01:06:27;12.13;;;7.47;;
7195;SDS011;3639;51.308;5.624;2023-06-14T01:09:15;10.97;;;7.03;;
7195;SDS011;3639;51.308;5.624;2023-06-14T01:12:05;12.97;;;7.67;;
7195;SDS011;3639;51.308;5.624;2023-06-14T01:14:38;10.43;;;7.23;;
7195;SDS011;3639;51.308;5.624;2023-06-14T01:17:04;9.53;;;7.07;;
7195;SDS011;3639;51.308;5.624;2023-06-14T01:19:32;8.67;;;7.13;;
7195;SDS011;3639;51.308;5.624;2023-06-14T01:22:00;9.63;;;6.87;;
7195;SDS011;3639;51.308;5.624;2023-06-14T01:24:27;8.57;;;6.43;;
7195;SDS011;3639;51.308;5.624;2023-06-14T01:26:54;7.40;;;6.50;;
7195;SDS011;3639;51.308;5.624;2023-06-14T01:29:24;8.00;;;6.47;;
7195;SDS011;3639;51.308;5.624;2023-06-14T01:31:52;9.50;;;7.10;;
7195;SDS011;3639;51.308;5.624;2023-06-14T01:34:19;7.83;;;6.00;;
7195;SDS011;3639;51.308;5.624;2023-06-14T01:36:44;10.57;;;6.63;;
7195;SDS011;3639;51.308;5.624;2023-06-14T01:39:13;7.97;;;6.40;;
7195;SDS011;3639;51.308;5.624;2023-06-14T01:41:43;8.53;;;6.30;;
7195;SDS011;3639;51.308;5.624;2023-06-14T01:44:10;8.90;;;6.40;;
7195;SDS011;3639;51.308;5.624;2023-06-14T01:46:38;9.30;;;7.43;;
7195;SDS011;3639;51.308;5.624;2023-06-14T01:49:05;10.30;;;6.63;;
7195;SDS011;3639;51.308;5.624;2023-06-14T01:51:32;9.43;;;6.43;;
7195;SDS011;3639;51.308;5.624;2023-06-14T01:53:57;9.30;;;6.40;;
7195;SDS011;3639;51.308;5.624;2023-06-14T01:56:23;10.27;;;7.43;;
7195;SDS011;3639;51.308;5.624;2023-06-14T01:58:48;8.77;;;6.87;;
7195;SDS011;3639;51.308;5.624;2023-06-14T02:01:14;9.43;;;6.43;;
7195;SDS011;3639;51.308;5.624;2023-06-14T02:03:41;9.17;;;7.33;;
7195;SDS011;3639;51.308;5.624;2023-06-14T02:06:07;9.87;;;6.83;;
7195;SDS011;3639;51.308;5.624;2023-06-14T02:08:33;9.00;;;6.73;;
7195;SDS011;3639;51.308;5.624;2023-06-14T02:10:58;9.77;;;6.77;;
7195;SDS011;3639;51.308;5.624;2023-06-14T02:13:24;9.53;;;7.10;;
7195;SDS011;3639;51.308;5.624;2023-06-14T02:15:50;9.40;;;6.60;;
7195;SDS011;3639;51.308;5.624;2023-06-14T02:18:19;11.03;;;6.93;;
7195;SDS011;3639;51.308;5.624;2023-06-14T02:20:45;10.77;;;7.03;;
7195;SDS011;3639;51.308;5.624;2023-06-14T02:23:10;8.83;;;6.63;;
7195;SDS011;3639;51.308;5.624;2023-06-14T02:25:36;8.73;;;6.30;;
7195;SDS011;3639;51.308;5.624;2023-06-14T02:28:02;10.30;;;6.23;;
7195;SDS011;3639;51.308;5.624;2023-06-14T02:30:27;11.10;;;7.17;;
7195;SDS011;3639;51.308;5.624;2023-06-14T02:32:53;8.67;;;6.17;;
7195;SDS011;3639;51.308;5.624;2023-06-14T02:35:19;11.53;;;6.93;;
7195;SDS011;3639;51.308;5.624;2023-06-14T02:37:45;10.40;;;6.77;;
7195;SDS011;3639;51.308;5.624;2023-06-14T02:40:11;10.00;;;6.27;;
7195;SDS011;3639;51.308;5.624;2023-06-14T02:42:37;9.07;;;6.40;;
7195;SDS011;3639;51.308;5.624;2023-06-14T02:45:02;9.83;;;6.30;;
7195;SDS011;3639;51.308;5.624;2023-06-14T02:47:29;8.07;;;6.10;;
7195;SDS011;3639;51.308;5.624;2023-06-14T02:49:54;9.23;;;6.30;;
7195;SDS011;3639;51.308;5.624;2023-06-14T02:52:20;8.53;;;6.03;;
7195;SDS011;3639;51.308;5.624;2023-06-14T02:54:46;9.53;;;5.97;;
7195;SDS011;3639;51.308;5.624;2023-06-14T02:57:14;9.67;;;6.23;;
7195;SDS011;3639;51.308;5.624;2023-06-14T02:59:40;10.33;;;5.60;;
7195;SDS011;3639;51.308;5.624;2023-06-14T03:02:05;10.03;;;6.20;;
7195;SDS011;3639;51.308;5.624;2023-06-14T03:04:31;10.53;;;5.30;;
7195;SDS011;3639;51.308;5.624;2023-06-14T03:07:02;10.90;;;6.47;;
7195;SDS011;3639;51.308;5.624;2023-06-14T03:09:33;8.47;;;5.90;;
7195;SDS011;3639;51.308;5.624;2023-06-14T03:12:03;9.60;;;6.17;;
7195;SDS011;3639;51.308;5.624;2023-06-14T03:14:30;7.87;;;5.67;;
7195;SDS011;3639;51.308;5.624;2023-06-14T03:16:58;8.93;;;5.97;;
7195;SDS011;3639;51.308;5.624;2023-06-14T03:19:23;7.83;;;5.33;;
7195;SDS011;3639;51.308;5.624;2023-06-14T03:21:50;7.40;;;5.57;;
7195;SDS011;3639;51.308;5.624;2023-06-14T03:24:16;7.83;;;5.60;;
7195;SDS011;3639;51.308;5.624;2023-06-14T03:26:42;6.53;;;5.37;;
7195;SDS011;3639;51.308;5.624;2023-06-14T03:29:08;10.47;;;5.43;;
7195;SDS011;3639;51.308;5.624;2023-06-14T03:31:41;7.33;;;5.80;;
7195;SDS011;3639;51.308;5.624;2023-06-14T03:34:24;9.40;;;6.30;;
7195;SDS011;3639;51.308;5.624;2023-06-14T03:36:50;7.23;;;5.67;;
7195;SDS011;3639;51.308;5.624;2023-06-14T03:39:15;7.87;;;5.27;;
7195;SDS011;3639;51.308;5.624;2023-06-14T03:41:41;7.10;;;4.97;;
7195;SDS011;3639;51.308;5.624;2023-06-14T03:44:06;7.90;;;5.43;;
7195;SDS011;3639;51.308;5.624;2023-06-14T03:46:34;6.63;;;5.03;;
7195;SDS011;3639;51.308;5.624;2023-06-14T03:49:00;7.87;;;5.07;;
7195;SDS011;3639;51.308;5.624;2023-06-14T03:51:27;7.87;;;5.53;;
7195;SDS011;3639;51.308;5.624;2023-06-14T03:53:54;8.80;;;6.20;;
7195;SDS011;3639;51.308;5.624;2023-06-14T03:56:20;10.43;;;5.40;;
7195;SDS011;3639;51.308;5.624;2023-06-14T03:58:46;8.47;;;5.53;;
7195;SDS011;3639;51.308;5.624;2023-06-14T04:01:12;6.67;;;5.07;;
7195;SDS011;3639;51.308;5.624;2023-06-14T04:03:37;9.10;;;5.40;;
7195;SDS011;3639;51.308;5.624;2023-06-14T04:06:05;7.07;;;4.97;;
7195;SDS011;3639;51.308;5.624;2023-06-14T04:08:31;8.37;;;5.10;;
7195;SDS011;3639;51.308;5.624;2023-06-14T04:10:57;9.87;;;5.50;;
7195;SDS011;3639;51.308;5.624;2023-06-14T04:13:22;8.33;;;4.60;;
7195;SDS011;3639;51.308;5.624;2023-06-14T04:15:48;6.40;;;5.13;;
7195;SDS011;3639;51.308;5.624;2023-06-14T04:18:13;8.20;;;5.30;;
7195;SDS011;3639;51.308;5.624;2023-06-14T04:20:39;7.37;;;4.90;;
7195;SDS011;3639;51.308;5.624;2023-06-14T04:23:12;9.40;;;5.73;;
7195;SDS011;3639;51.308;5.624;2023-06-14T04:25:43;8.73;;;5.67;;
7195;SDS011;3639;51.308;5.624;2023-06-14T04:28:10;8.90;;;5.60;;
7195;SDS011;3639;51.308;5.624;2023-06-14T04:30:37;8.10;;;5.43;;
7195;SDS011;3639;51.308;5.624;2023-06-14T04:33:04;7.50;;;5.73;;
7195;SDS011;3639;51.308;5.624;2023-06-14T04:35:30;7.83;;;5.00;;
7195;SDS011;3639;51.308;5.624;2023-06-14T04:37:57;8.17;;;5.30;;
7195;SDS011;3639;51.308;5.624;2023-06-14T04:40:24;10.33;;;5.93;;
7195;SDS011;3639;51.308;5.624;2023-06-14T04:42:49;10.03;;;6.13;;
7195;SDS011;3639;51.308;5.624;2023-06-14T04:45:15;8.50;;;5.40;;
7195;SDS011;3639;51.308;5.624;2023-06-14T04:47:41;6.23;;;5.30;;
7195;SDS011;3639;51.308;5.624;2023-06-14T04:50:09;7.20;;;5.37;;
7195;SDS011;3639;51.308;5.624;2023-06-14T04:52:38;7.77;;;5.60;;
7195;SDS011;3639;51.308;5.624;2023-06-14T04:55:03;10.03;;;5.70;;
7195;SDS011;3639;51.308;5.624;2023-06-14T04:57:30;7.00;;;5.27;;
7195;SDS011;3639;51.308;5.624;2023-06-14T04:59:56;7.00;;;5.40;;
7195;SDS011;3639;51.308;5.624;2023-06-14T05:02:22;9.17;;;5.50;;
7195;SDS011;3639;51.308;5.624;2023-06-14T05:04:48;9.60;;;5.53;;
7195;SDS011;3639;51.308;5.624;2023-06-14T05:07:15;12.53;;;5.50;;
7195;SDS011;3639;51.308;5.624;2023-06-14T05:09:40;10.17;;;5.40;;
7195;SDS011;3639;51.308;5.624;2023-06-14T05:12:06;6.70;;;5.33;;
7195;SDS011;3639;51.308;5.624;2023-06-14T05:14:33;7.80;;;5.10;;
7195;SDS011;3639;51.308;5.624;2023-06-14T05:16:59;6.47;;;4.77;;
7195;SDS011;3639;51.308;5.624;2023-06-14T05:19:25;9.73;;;5.53;;
7195;SDS011;3639;51.308;5.624;2023-06-14T05:21:52;7.90;;;5.13;;
7195;SDS011;3639;51.308;5.624;2023-06-14T05:24:18;7.13;;;5.20;;
7195;SDS011;3639;51.308;5.624;2023-06-14T05:26:44;10.23;;;4.93;;
7195;SDS011;3639;51.308;5.624;2023-06-14T05:29:10;9.20;;;4.90;;
7195;SDS011;3639;51.308;5.624;2023-06-14T05:31:36;9.90;;;5.43;;
7195;SDS011;3639;51.308;5.624;2023-06-14T05:34:01;6.43;;;4.87;;
7195;SDS011;3639;51.308;5.624;2023-06-14T05:36:27;7.10;;;5.47;;
7195;SDS011;3639;51.308;5.624;2023-06-14T05:38:53;8.90;;;5.37;;
7195;SDS011;3639;51.308;5.624;2023-06-14T05:41:25;10.07;;;5.40;;
7195;SDS011;3639;51.308;5.624;2023-06-14T05:43:51;9.07;;;5.57;;
7195;SDS011;3639;51.308;5.624;2023-06-14T05:46:17;7.67;;;4.73;;
7195;SDS011;3639;51.308;5.624;2023-06-14T05:48:47;7.03;;;5.40;;
7195;SDS011;3639;51.308;5.624;2023-06-14T05:51:13;8.83;;;4.93;;
7195;SDS011;3639;51.308;5.624;2023-06-14T05:53:39;6.93;;;5.40;;
7195;SDS011;3639;51.308;5.624;2023-06-14T05:56:05;8.50;;;5.23;;
7195;SDS011;3639;51.308;5.624;2023-06-14T05:58:30;8.17;;;5.10;;
7195;SDS011;3639;51.308;5.624;2023-06-14T06:00:56;7.27;;;5.00;;
7195;SDS011;3639;51.308;5.624;2023-06-14T06:03:22;9.13;;;4.37;;
7195;SDS011;3639;51.308;5.624;2023-06-14T06:05:48;8.23;;;5.27;;
7195;SDS011;3639;51.308;5.624;2023-06-14T06:08:13;7.87;;;5.30;;
7195;SDS011;3639;51.308;5.624;2023-06-14T06:10:39;11.83;;;5.20;;
7195;SDS011;3639;51.308;5.624;2023-06-14T06:13:05;9.60;;;4.70;;
7195;SDS011;3639;51.308;5.624;2023-06-14T06:15:30;6.73;;;4.30;;
7195;SDS011;3639;51.308;5.624;2023-06-14T06:17:56;6.77;;;4.73;;
7195;SDS011;3639;51.308;5.624;2023-06-14T06:20:21;11.63;;;4.97;;
7195;SDS011;3639;51.308;5.624;2023-06-14T06:22:55;8.90;;;4.97;;
7195;SDS011;3639;51.308;5.624;2023-06-14T06:25:20;6.27;;;3.90;;
7195;SDS011;3639;51.308;5.624;2023-06-14T06:27:47;6.63;;;4.30;;
7195;SDS011;3639;51.308;5.624;2023-06-14T06:30:12;7.23;;;4.50;;
7195;SDS011;3639;51.308;5.624;2023-06-14T06:32:38;9.53;;;4.67;;
7195;SDS011;3639;51.308;5.624;2023-06-14T06:35:04;5.93;;;4.27;;
7195;SDS011;3639;51.308;5.624;2023-06-14T06:37:32;14.67;;;4.80;;
7195;SDS011;3639;51.308;5.624;2023-06-14T06:39:57;8.40;;;4.30;;
7195;SDS011;3639;51.308;5.624;2023-06-14T06:42:23;7.10;;;3.53;;
7195;SDS011;3639;51.308;5.624;2023-06-14T06:44:49;5.10;;;4.13;;
7195;SDS011;3639;51.308;5.624;2023-06-14T06:47:14;8.20;;;3.97;;
7195;SDS011;3639;51.308;5.624;2023-06-14T06:49:40;6.57;;;4.00;;
7195;SDS011;3639;51.308;5.624;2023-06-14T06:52:06;10.10;;;4.70;;
7195;SDS011;3639;51.308;5.624;2023-06-14T06:54:32;5.67;;;3.67;;
7195;SDS011;3639;51.308;5.624;2023-06-14T06:56:58;4.90;;;4.03;;
7195;SDS011;3639;51.308;5.624;2023-06-14T06:59:25;5.33;;;3.67;;
7195;SDS011;3639;51.308;5.624;2023-06-14T07:01:51;9.13;;;4.53;;
7195;SDS011;3639;51.308;5.624;2023-06-14T07:04:16;5.30;;;3.83;;
7195;SDS011;3639;51.308;5.624;2023-06-14T07:06:42;4.97;;;3.90;;
7195;SDS011;3639;51.308;5.624;2023-06-14T07:09:08;5.63;;;3.47;;
7195;SDS011;3639;51.308;5.624;2023-06-14T07:11:38;5.70;;;3.60;;
7195;SDS011;3639;51.308;5.624;2023-06-14T07:14:04;6.63;;;3.40;;
7195;SDS011;3639;51.308;5.624;2023-06-14T07:16:30;6.00;;;3.60;;
7195;SDS011;3639;51.308;5.624;2023-06-14T07:18:56;7.13;;;3.13;;
7195;SDS011;3639;51.308;5.624;2023-06-14T07:21:21;4.67;;;3.37;;
7195;SDS011;3639;51.308;5.624;2023-06-14T07:23:47;8.77;;;3.83;;
7195;SDS011;3639;51.308;5.624;2023-06-14T07:26:12;4.15;;;2.83;;
7195;SDS011;3639;51.308;5.624;2023-06-14T07:28:38;5.88;;;3.78;;
7195;SDS011;3639;51.308;5.624;2023-06-14T07:31:04;4.60;;;3.13;;
7195;SDS011;3639;51.308;5.624;2023-06-14T07:33:29;6.13;;;3.50;;
7195;SDS011;3639;51.308;5.624;2023-06-14T07:35:55;4.80;;;2.92;;
7195;SDS011;3639;51.308;5.624;2023-06-14T07:38:20;5.78;;;3.30;;
7195;SDS011;3639;51.308;5.624;2023-06-14T07:40:46;5.95;;;3.35;;
7195;SDS011;3639;51.308;5.624;2023-06-14T07:43:12;5.87;;;3.23;;
7195;SDS011;3639;51.308;5.624;2023-06-14T07:45:37;4.53;;;3.20;;
7195;SDS011;3639;51.308;5.624;2023-06-14T07:48:03;4.72;;;2.88;;
7195;SDS011;3639;51.308;5.624;2023-06-14T07:50:29;5.05;;;3.40;;
7195;SDS011;3639;51.308;5.624;2023-06-14T07:52:55;4.03;;;3.13;;
7195;SDS011;3639;51.308;5.624;2023-06-14T07:55:20;3.88;;;3.20;;
7195;SDS011;3639;51.308;5.624;2023-06-14T07:57:46;4.13;;;2.95;;
7195;SDS011;3639;51.308;5.624;2023-06-14T08:00:11;5.03;;;3.00;;
7195;SDS011;3639;51.308;5.624;2023-06-14T08:02:40;4.38;;;3.38;;
7195;SDS011;3639;51.308;5.624;2023-06-14T08:05:07;5.40;;;3.30;;
7195;SDS011;3639;51.308;5.624;2023-06-14T08:07:34;4.28;;;3.17;;
7195;SDS011;3639;51.308;5.624;2023-06-14T08:10:00;5.40;;;4.25;;
7195;SDS011;3639;51.308;5.624;2023-06-14T08:12:26;9.60;;;3.90;;
7195;SDS011;3639;51.308;5.624;2023-06-14T08:14:51;4.05;;;3.05;;
7195;SDS011;3639;51.308;5.624;2023-06-14T08:17:17;6.20;;;2.65;;
7195;SDS011;3639;51.308;5.624;2023-06-14T08:19:42;4.45;;;3.17;;
7195;SDS011;3639;51.308;5.624;2023-06-14T08:22:08;4.93;;;2.42;;
7195;SDS011;3639;51.308;5.624;2023-06-14T08:24:36;4.22;;;2.60;;
7195;SDS011;3639;51.308;5.624;2023-06-14T08:27:02;4.97;;;3.05;;
7195;SDS011;3639;51.308;5.624;2023-06-14T08:29:28;3.58;;;2.92;;
7195;SDS011;3639;51.308;5.624;2023-06-14T08:31:55;4.63;;;2.90;;
7195;SDS011;3639;51.308;5.624;2023-06-14T08:34:21;5.68;;;2.85;;
7195;SDS011;3639;51.308;5.624;2023-06-14T08:36:48;3.45;;;2.42;;
7195;SDS011;3639;51.308;5.624;2023-06-14T08:39:16;7.03;;;2.78;;
7195;SDS011;3639;51.308;5.624;2023-06-14T08:41:45;4.97;;;2.42;;
7195;SDS011;3639;51.308;5.624;2023-06-14T08:44:12;5.82;;;2.40;;
7195;SDS011;3639;51.308;5.624;2023-06-14T08:46:37;5.15;;;2.50;;
7195;SDS011;3639;51.308;5.624;2023-06-14T08:49:04;2.15;;;1.95;;
7195;SDS011;3639;51.308;5.624;2023-06-14T08:51:32;5.40;;;3.10;;
7195;SDS011;3639;51.308;5.624;2023-06-14T08:54:01;4.07;;;2.50;;
7195;SDS011;3639;51.308;5.624;2023-06-14T08:56:29;2.92;;;2.22;;
7195;SDS011;3639;51.308;5.624;2023-06-14T08:58:56;4.18;;;2.60;;
7195;SDS011;3639;51.308;5.624;2023-06-14T09:01:27;3.75;;;2.05;;
7195;SDS011;3639;51.308;5.624;2023-06-14T09:03:53;3.05;;;2.38;;
7195;SDS011;3639;51.308;5.624;2023-06-14T09:06:23;4.07;;;1.80;;
7195;SDS011;3639;51.308;5.624;2023-06-14T09:08:50;1.90;;;1.60;;
7195;SDS011;3639;51.308;5.624;2023-06-14T09:11:17;2.70;;;1.98;;
7195;SDS011;3639;51.308;5.624;2023-06-14T09:13:44;2.40;;;1.92;;
7195;SDS011;3639;51.308;5.624;2023-06-14T09:16:11;3.83;;;1.98;;
7195;SDS011;3639;51.308;5.624;2023-06-14T09:21:03;2.75;;;1.92;;
7195;SDS011;3639;51.308;5.624;2023-06-14T09:23:33;3.55;;;1.77;;
7195;SDS011;3639;51.308;5.624;2023-06-14T09:26:04;2.88;;;2.00;;
7195;SDS011;3639;51.308;5.624;2023-06-14T09:28:45;2.67;;;1.63;;
7195;SDS011;3639;51.308;5.624;2023-06-14T09:31:13;3.95;;;1.77;;
7195;SDS011;3639;51.308;5.624;2023-06-14T09:33:47;2.25;;;1.40;;
7195;SDS011;3639;51.308;5.624;2023-06-14T09:36:17;1.70;;;1.33;;
7195;SDS011;3639;51.308;5.624;2023-06-14T09:38:56;2.33;;;1.35;;
7195;SDS011;3639;51.308;5.624;2023-06-14T09:44:04;4.13;;;1.30;;
7195;SDS011;3639;51.308;5.624;2023-06-14T09:46:34;2.42;;;1.40;;
7195;SDS011;3639;51.308;5.624;2023-06-14T09:49:01;2.92;;;1.60;;
7195;SDS011;3639;51.308;5.624;2023-06-14T09:51:28;3.55;;;1.65;;
7195;SDS011;3639;51.308;5.624;2023-06-14T09:53:56;2.10;;;1.27;;
7195;SDS011;3639;51.308;5.624;2023-06-14T09:56:28;4.00;;;1.55;;
7195;SDS011;3639;51.308;5.624;2023-06-14T09:58:56;1.58;;;1.30;;
7195;SDS011;3639;51.308;5.624;2023-06-14T10:01:26;2.95;;;1.60;;
7195;SDS011;3639;51.308;5.624;2023-06-14T10:03:55;2.10;;;1.50;;
7195;SDS011;3639;51.308;5.624;2023-06-14T10:06:30;1.65;;;1.30;;
7195;SDS011;3639;51.308;5.624;2023-06-14T10:08:57;2.45;;;1.50;;
7195;SDS011;3639;51.308;5.624;2023-06-14T10:11:26;2.25;;;1.48;;
7195;SDS011;3639;51.308;5.624;2023-06-14T10:13:52;2.35;;;1.40;;
7195;SDS011;3639;51.308;5.624;2023-06-14T10:16:24;3.05;;;1.38;;
7195;SDS011;3639;51.308;5.624;2023-06-14T10:19:13;2.83;;;1.30;;
7195;SDS011;3639;51.308;5.624;2023-06-14T10:24:18;1.48;;;1.35;;
7195;SDS011;3639;51.308;5.624;2023-06-14T10:26:51;1.95;;;1.58;;
7195;SDS011;3639;51.308;5.624;2023-06-14T10:29:18;2.10;;;1.30;;
7195;SDS011;3639;51.308;5.624;2023-06-14T10:31:44;3.08;;;1.40;;
7195;SDS011;3639;51.308;5.624;2023-06-14T10:34:22;2.53;;;1.58;;
7195;SDS011;3639;51.308;5.624;2023-06-14T10:37:01;2.70;;;1.50;;
7195;SDS011;3639;51.308;5.624;2023-06-14T10:39:28;3.03;;;2.00;;
7195;SDS011;3639;51.308;5.624;2023-06-14T10:41:55;1.90;;;1.40;;
7195;SDS011;3639;51.308;5.624;2023-06-14T10:46:47;3.25;;;1.40;;
7195;SDS011;3639;51.308;5.624;2023-06-14T10:49:17;3.33;;;1.35;;
7195;SDS011;3639;51.308;5.624;2023-06-14T10:51:46;3.88;;;1.48;;
7195;SDS011;3639;51.308;5.624;2023-06-14T10:54:16;2.85;;;1.40;;
7195;SDS011;3639;51.308;5.624;2023-06-14T10:56:48;2.60;;;1.33;;
7195;SDS011;3639;51.308;5.624;2023-06-14T10:59:19;7.55;;;2.10;;
7195;SDS011;3639;51.308;5.624;2023-06-14T11:04:48;3.63;;;1.60;;
7195;SDS011;3639;51.308;5.624;2023-06-14T11:12:38;2.75;;;1.50;;
7195;SDS011;3639;51.308;5.624;2023-06-14T11:15:07;5.45;;;1.30;;
7195;SDS011;3639;51.308;5.624;2023-06-14T11:17:33;2.88;;;1.65;;
7195;SDS011;3639;51.308;5.624;2023-06-14T11:20:11;2.78;;;1.50;;
7195;SDS011;3639;51.308;5.624;2023-06-14T11:22:41;4.05;;;1.67;;
7195;SDS011;3639;51.308;5.624;2023-06-14T11:25:13;1.88;;;1.55;;
7195;SDS011;3639;51.308;5.624;2023-06-14T11:27:39;3.28;;;1.80;;
7195;SDS011;3639;51.308;5.624;2023-06-14T11:30:07;2.80;;;1.80;;
7195;SDS011;3639;51.308;5.624;2023-06-14T11:32:34;3.85;;;1.58;;
7195;SDS011;3639;51.308;5.624;2023-06-14T11:35:03;2.63;;;1.70;;
7195;SDS011;3639;51.308;5.624;2023-06-14T11:37:30;1.52;;;1.35;;
7195;SDS011;3639;51.308;5.624;2023-06-14T11:39:59;2.60;;;1.30;;
7195;SDS011;3639;51.308;5.624;2023-06-14T11:42:29;2.33;;;1.50;;
7195;SDS011;3639;51.308;5.624;2023-06-14T11:44:55;1.98;;;1.45;;
7195;SDS011;3639;51.308;5.624;2023-06-14T11:47:21;1.80;;;1.50;;
7195;SDS011;3639;51.308;5.624;2023-06-14T11:49:47;1.55;;;1.20;;
7195;SDS011;3639;51.308;5.624;2023-06-14T11:52:13;2.30;;;1.60;;
7195;SDS011;3639;51.308;5.624;2023-06-14T11:54:39;1.60;;;1.33;;
7195;SDS011;3639;51.308;5.624;2023-06-14T11:57:06;2.67;;;1.60;;
7195;SDS011;3639;51.308;5.624;2023-06-14T11:59:37;1.85;;;1.40;;
7195;SDS011;3639;51.308;5.624;2023-06-14T12:02:04;3.97;;;1.70;;
7195;SDS011;3639;51.308;5.624;2023-06-14T12:04:31;1.48;;;1.35;;
7195;SDS011;3639;51.308;5.624;2023-06-14T12:06:56;2.58;;;1.45;;
7195;SDS011;3639;51.308;5.624;2023-06-14T12:09:22;1.95;;;1.40;;
7195;SDS011;3639;51.308;5.624;2023-06-14T12:11:50;5.90;;;1.40;;
7195;SDS011;3639;51.308;5.624;2023-06-14T12:14:30;5.10;;;1.60;;
7195;SDS011;3639;51.308;5.624;2023-06-14T12:17:03;5.13;;;2.03;;
7195;SDS011;3639;51.308;5.624;2023-06-14T12:19:31;1.38;;;1.27;;
7195;SDS011;3639;51.308;5.624;2023-06-14T12:21:57;2.40;;;1.60;;
7195;SDS011;3639;51.308;5.624;2023-06-14T12:24:29;3.03;;;1.50;;
7195;SDS011;3639;51.308;5.624;2023-06-14T12:26:57;1.70;;;1.33;;
7195;SDS011;3639;51.308;5.624;2023-06-14T12:29:24;2.10;;;1.27;;
7195;SDS011;3639;51.308;5.624;2023-06-14T12:31:50;2.55;;;1.33;;
7195;SDS011;3639;51.308;5.624;2023-06-14T12:34:16;2.17;;;1.35;;
7195;SDS011;3639;51.308;5.624;2023-06-14T12:36:41;1.95;;;1.55;;
7195;SDS011;3639;51.308;5.624;2023-06-14T12:39:09;4.57;;;1.63;;
7195;SDS011;3639;51.308;5.624;2023-06-14T12:41:35;4.47;;;1.50;;
7195;SDS011;3639;51.308;5.624;2023-06-14T12:44:01;2.10;;;1.80;;
7195;SDS011;3639;51.308;5.624;2023-06-14T12:46:30;1.80;;;1.38;;
7195;SDS011;3639;51.308;5.624;2023-06-14T12:48:56;3.17;;;1.60;;
7195;SDS011;3639;51.308;5.624;2023-06-14T12:51:22;2.00;;;1.30;;
7195;SDS011;3639;51.308;5.624;2023-06-14T12:53:48;1.90;;;1.42;;
7195;SDS011;3639;51.308;5.624;2023-06-14T12:56:14;2.75;;;1.58;;
7195;SDS011;3639;51.308;5.624;2023-06-14T12:58:40;4.40;;;2.13;;
7195;SDS011;3639;51.308;5.624;2023-06-14T13:01:06;3.08;;;1.50;;
7195;SDS011;3639;51.308;5.624;2023-06-14T13:03:32;1.73;;;1.40;;
7195;SDS011;3639;51.308;5.624;2023-06-14T13:06:01;2.25;;;1.40;;
7195;SDS011;3639;51.308;5.624;2023-06-14T13:08:27;3.40;;;1.60;;
7195;SDS011;3639;51.308;5.624;2023-06-14T13:10:53;1.83;;;1.38;;
7195;SDS011;3639;51.308;5.624;2023-06-14T13:13:19;2.03;;;1.20;;
7195;SDS011;3639;51.308;5.624;2023-06-14T13:15:44;2.53;;;1.30;;
7195;SDS011;3639;51.308;5.624;2023-06-14T13:18:11;1.98;;;1.00;;
7195;SDS011;3639;51.308;5.624;2023-06-14T13:20:38;2.47;;;1.52;;
7195;SDS011;3639;51.308;5.624;2023-06-14T13:23:04;1.50;;;1.33;;
7195;SDS011;3639;51.308;5.624;2023-06-14T13:25:32;1.88;;;1.10;;
7195;SDS011;3639;51.308;5.624;2023-06-14T13:27:58;1.70;;;1.20;;
7195;SDS011;3639;51.308;5.624;2023-06-14T13:30:24;1.20;;;1.00;;
7195;SDS011;3639;51.308;5.624;2023-06-14T13:32:50;1.50;;;1.08;;
7195;SDS011;3639;51.308;5.624;2023-06-14T13:35:17;1.45;;;1.10;;
7195;SDS011;3639;51.308;5.624;2023-06-14T13:37:43;1.85;;;1.33;;
7195;SDS011;3639;51.308;5.624;2023-06-14T13:40:08;1.27;;;1.05;;
7195;SDS011;3639;51.308;5.624;2023-06-14T13:42:34;1.65;;;1.08;;
7195;SDS011;3639;51.308;5.624;2023-06-14T13:45:01;1.35;;;0.90;;
7195;SDS011;3639;51.308;5.624;2023-06-14T13:47:28;1.75;;;1.20;;
7195;SDS011;3639;51.308;5.624;2023-06-14T13:49:53;1.95;;;1.10;;
7195;SDS011;3639;51.308;5.624;2023-06-14T13:52:19;1.55;;;1.15;;
7195;SDS011;3639;51.308;5.624;2023-06-14T13:54:45;1.27;;;1.00;;
7195;SDS011;3639;51.308;5.624;2023-06-14T13:57:11;1.90;;;1.20;;
7195;SDS011;3639;51.308;5.624;2023-06-14T13:59:37;1.52;;;1.02;;
7195;SDS011;3639;51.308;5.624;2023-06-14T14:02:04;4.15;;;1.60;;
7195;SDS011;3639;51.308;5.624;2023-06-14T14:04:30;1.23;;;0.93;;
7195;SDS011;3639;51.308;5.624;2023-06-14T14:06:56;1.42;;;1.00;;
7195;SDS011;3639;51.308;5.624;2023-06-14T14:09:22;1.42;;;1.00;;
7195;SDS011;3639;51.308;5.624;2023-06-14T14:11:48;3.35;;;1.08;;
7195;SDS011;3639;51.308;5.624;2023-06-14T14:14:14;1.58;;;1.15;;
7195;SDS011;3639;51.308;5.624;2023-06-14T14:16:39;3.80;;;1.17;;
7195;SDS011;3639;51.308;5.624;2023-06-14T14:19:05;3.08;;;0.90;;
7195;SDS011;3639;51.308;5.624;2023-06-14T14:21:31;1.95;;;1.30;;
7195;SDS011;3639;51.308;5.624;2023-06-14T14:23:57;2.08;;;1.10;;
7195;SDS011;3639;51.308;5.624;2023-06-14T14:26:23;2.15;;;1.35;;
7195;SDS011;3639;51.308;5.624;2023-06-14T14:28:49;1.77;;;1.05;;
7195;SDS011;3639;51.308;5.624;2023-06-14T14:31:15;4.18;;;1.50;;
7195;SDS011;3639;51.308;5.624;2023-06-14T14:33:41;1.50;;;1.00;;
7195;SDS011;3639;51.308;5.624;2023-06-14T14:36:07;2.75;;;1.27;;
7195;SDS011;3639;51.308;5.624;2023-06-14T14:38:33;2.10;;;1.00;;
7195;SDS011;3639;51.308;5.624;2023-06-14T14:40:58;5.40;;;1.23;;
7195;SDS011;3639;51.308;5.624;2023-06-14T14:43:24;1.20;;;1.00;;
7195;SDS011;3639;51.308;5.624;2023-06-14T14:45:50;2.65;;;1.10;;
7195;SDS011;3639;51.308;5.624;2023-06-14T14:48:15;3.40;;;1.10;;
7195;SDS011;3639;51.308;5.624;2023-06-14T14:50:41;2.88;;;1.58;;
7195;SDS011;3639;51.308;5.624;2023-06-14T14:53:06;1.45;;;1.10;;
7195;SDS011;3639;51.308;5.624;2023-06-14T14:55:32;1.92;;;1.13;;
7195;SDS011;3639;51.308;5.624;2023-06-14T14:58:01;3.72;;;1.25;;
7195;SDS011;3639;51.308;5.624;2023-06-14T15:00:27;2.28;;;1.45;;
7195;SDS011;3639;51.308;5.624;2023-06-14T15:02:53;2.60;;;1.08;;
7195;SDS011;3639;51.308;5.624;2023-06-14T15:05:18;2.58;;;1.20;;
7195;SDS011;3639;51.308;5.624;2023-06-14T15:07:44;1.13;;;0.90;;
7195;SDS011;3639;51.308;5.624;2023-06-14T15:10:10;2.15;;;1.52;;
7195;SDS011;3639;51.308;5.624;2023-06-14T15:12:36;3.75;;;1.50;;
7195;SDS011;3639;51.308;5.624;2023-06-14T15:15:02;2.03;;;1.33;;
7195;SDS011;3639;51.308;5.624;2023-06-14T15:17:28;1.88;;;1.20;;
7195;SDS011;3639;51.308;5.624;2023-06-14T15:19:54;1.30;;;1.15;;
7195;SDS011;3639;51.308;5.624;2023-06-14T15:22:20;2.78;;;1.40;;
7195;SDS011;3639;51.308;5.624;2023-06-14T15:24:46;2.38;;;1.10;;
7195;SDS011;3639;51.308;5.624;2023-06-14T15:27:11;1.92;;;1.20;;
7195;SDS011;3639;51.308;5.624;2023-06-14T15:29:38;2.15;;;1.42;;
7195;SDS011;3639;51.308;5.624;2023-06-14T15:32:07;1.33;;;1.20;;